sensor_id;sensor_type;location;lat;lon;timestamp;P1;durP1;ratioP1;P2;durP2;ratioP2
51806;SDS011;37865;51.304;9.536;2023-08-06T00:01:35;2.72;;;2.50;;
51806;SDS011;37865;51.304;9.536;2023-08-06T00:04:00;3.58;;;3.22;;
51806;SDS011;37865;51.304;9.536;2023-08-06T00:06:26;11.63;;;3.45;;
51806;SDS011;37865;51.304;9.536;2023-08-06T00:08:51;7.07;;;3.13;;
51806;SDS011;37865;51.304;9.536;2023-08-06T00:11:16;2.97;;;2.78;;
51806;SDS011;37865;51.304;9.536;2023-08-06T00:13:42;9.30;;;3.20;;
51806;SDS011;37865;51.304;9.536;2023-08-06T00:16:08;3.28;;;2.80;;
51806;SDS011;37865;51.304;9.536;2023-08-06T00:18:37;2.63;;;2.42;;
51806;SDS011;37865;51.304;9.536;2023-08-06T00:21:03;3.47;;;3.15;;
51806;SDS011;37865;51.304;9.536;2023-08-06T00:23:29;10.27;;;3.70;;
51806;SDS011;37865;51.304;9.536;2023-08-06T00:25:54;5.40;;;4.63;;
51806;SDS011;37865;51.304;9.536;2023-08-06T00:28:19;6.22;;;5.25;;
51806;SDS011;37865;51.304;9.536;2023-08-06T00:30:44;6.05;;;5.45;;
51806;SDS011;37865;51.304;9.536;2023-08-06T00:33:10;8.95;;;4.70;;
51806;SDS011;37865;51.304;9.536;2023-08-06T00:35:35;7.80;;;7.07;;
51806;SDS011;37865;51.304;9.536;2023-08-06T00:38:00;6.95;;;6.30;;
51806;SDS011;37865;51.304;9.536;2023-08-06T00:40:26;10.10;;;7.05;;
51806;SDS011;37865;51.304;9.536;2023-08-06T00:42:53;9.25;;;5.57;;
51806;SDS011;37865;51.304;9.536;2023-08-06T00:45:18;14.73;;;6.93;;
51806;SDS011;37865;51.304;9.536;2023-08-06T00:47:44;8.45;;;6.88;;
51806;SDS011;37865;51.304;9.536;2023-08-06T00:50:10;7.90;;;7.10;;
51806;SDS011;37865;51.304;9.536;2023-08-06T00:52:36;6.05;;;5.47;;
51806;SDS011;37865;51.304;9.536;2023-08-06T00:55:02;12.65;;;6.63;;
51806;SDS011;37865;51.304;9.536;2023-08-06T00:57:28;10.52;;;6.78;;
51806;SDS011;37865;51.304;9.536;2023-08-06T00:59:54;19.13;;;8.75;;
51806;SDS011;37865;51.304;9.536;2023-08-06T01:02:20;7.50;;;6.38;;
51806;SDS011;37865;51.304;9.536;2023-08-06T01:04:45;8.65;;;7.25;;
51806;SDS011;37865;51.304;9.536;2023-08-06T01:15:24;7.97;;;7.18;;
51806;SDS011;37865;51.304;9.536;2023-08-06T01:17:56;12.27;;;7.07;;
51806;SDS011;37865;51.304;9.536;2023-08-06T01:20:22;15.00;;;7.55;;
51806;SDS011;37865;51.304;9.536;2023-08-06T01:22:52;7.32;;;6.55;;
51806;SDS011;37865;51.304;9.536;2023-08-06T01:25:18;10.27;;;7.05;;
51806;SDS011;37865;51.304;9.536;2023-08-06T01:27:45;12.73;;;6.55;;
51806;SDS011;37865;51.304;9.536;2023-08-06T01:30:14;15.57;;;7.10;;
51806;SDS011;37865;51.304;9.536;2023-08-06T01:32:43;6.25;;;5.60;;
51806;SDS011;37865;51.304;9.536;2023-08-06T01:35:11;6.90;;;6.00;;
51806;SDS011;37865;51.304;9.536;2023-08-06T01:37:39;8.75;;;6.35;;
51806;SDS011;37865;51.304;9.536;2023-08-06T01:40:12;9.93;;;6.30;;
51806;SDS011;37865;51.304;9.536;2023-08-06T01:42:38;9.10;;;7.22;;
51806;SDS011;37865;51.304;9.536;2023-08-06T01:45:05;8.25;;;7.20;;
51806;SDS011;37865;51.304;9.536;2023-08-06T01:47:31;9.07;;;6.50;;
51806;SDS011;37865;51.304;9.536;2023-08-06T01:49:56;9.30;;;6.57;;
51806;SDS011;37865;51.304;9.536;2023-08-06T01:52:22;8.77;;;6.50;;
51806;SDS011;37865;51.304;9.536;2023-08-06T01:54:47;6.53;;;5.93;;
51806;SDS011;37865;51.304;9.536;2023-08-06T01:57:12;6.25;;;5.18;;
51806;SDS011;37865;51.304;9.536;2023-08-06T01:59:37;7.75;;;5.20;;
51806;SDS011;37865;51.304;9.536;2023-08-06T02:02:03;5.57;;;5.00;;
51806;SDS011;37865;51.304;9.536;2023-08-06T02:04:28;6.22;;;5.20;;
51806;SDS011;37865;51.304;9.536;2023-08-06T02:06:54;9.98;;;6.15;;
51806;SDS011;37865;51.304;9.536;2023-08-06T02:09:19;7.25;;;5.95;;
51806;SDS011;37865;51.304;9.536;2023-08-06T02:11:44;10.07;;;5.65;;
51806;SDS011;37865;51.304;9.536;2023-08-06T02:14:10;9.68;;;5.85;;
51806;SDS011;37865;51.304;9.536;2023-08-06T02:16:35;6.22;;;5.55;;
51806;SDS011;37865;51.304;9.536;2023-08-06T02:19:01;5.07;;;4.57;;
51806;SDS011;37865;51.304;9.536;2023-08-06T02:21:26;5.57;;;5.03;;
51806;SDS011;37865;51.304;9.536;2023-08-06T02:23:51;5.38;;;4.90;;
51806;SDS011;37865;51.304;9.536;2023-08-06T02:26:16;7.13;;;5.15;;
51806;SDS011;37865;51.304;9.536;2023-08-06T02:28:42;5.68;;;4.97;;
51806;SDS011;37865;51.304;9.536;2023-08-06T02:31:07;7.50;;;5.43;;
51806;SDS011;37865;51.304;9.536;2023-08-06T02:33:32;6.78;;;5.05;;
51806;SDS011;37865;51.304;9.536;2023-08-06T02:35:58;5.65;;;5.15;;
51806;SDS011;37865;51.304;9.536;2023-08-06T02:38:25;6.18;;;4.95;;
51806;SDS011;37865;51.304;9.536;2023-08-06T02:40:51;9.88;;;6.38;;
51806;SDS011;37865;51.304;9.536;2023-08-06T02:43:16;6.57;;;4.70;;
51806;SDS011;37865;51.304;9.536;2023-08-06T02:45:41;11.27;;;5.78;;
51806;SDS011;37865;51.304;9.536;2023-08-06T02:48:06;14.75;;;6.40;;
51806;SDS011;37865;51.304;9.536;2023-08-06T02:50:37;5.85;;;5.25;;
51806;SDS011;37865;51.304;9.536;2023-08-06T02:55:32;8.30;;;5.65;;
51806;SDS011;37865;51.304;9.536;2023-08-06T02:57:59;12.15;;;6.18;;
51806;SDS011;37865;51.304;9.536;2023-08-06T03:00:24;7.18;;;5.60;;
51806;SDS011;37865;51.304;9.536;2023-08-06T03:02:50;6.97;;;5.60;;
51806;SDS011;37865;51.304;9.536;2023-08-06T03:05:15;8.65;;;6.57;;
51806;SDS011;37865;51.304;9.536;2023-08-06T03:07:41;9.20;;;6.70;;
51806;SDS011;37865;51.304;9.536;2023-08-06T03:10:06;10.70;;;6.47;;
51806;SDS011;37865;51.304;9.536;2023-08-06T03:12:32;14.95;;;7.55;;
51806;SDS011;37865;51.304;9.536;2023-08-06T03:14:57;7.30;;;6.00;;
51806;SDS011;37865;51.304;9.536;2023-08-06T03:17:22;25.13;;;7.22;;
51806;SDS011;37865;51.304;9.536;2023-08-06T03:19:47;10.15;;;6.35;;
51806;SDS011;37865;51.304;9.536;2023-08-06T03:22:13;7.18;;;6.47;;
51806;SDS011;37865;51.304;9.536;2023-08-06T03:24:38;7.35;;;6.65;;
51806;SDS011;37865;51.304;9.536;2023-08-06T03:27:03;7.97;;;6.32;;
51806;SDS011;37865;51.304;9.536;2023-08-06T03:29:29;10.95;;;7.45;;
51806;SDS011;37865;51.304;9.536;2023-08-06T03:31:54;18.23;;;6.10;;
51806;SDS011;37865;51.304;9.536;2023-08-06T03:34:19;7.65;;;6.40;;
51806;SDS011;37865;51.304;9.536;2023-08-06T03:36:45;6.25;;;5.65;;
51806;SDS011;37865;51.304;9.536;2023-08-06T03:39:10;5.70;;;5.20;;
51806;SDS011;37865;51.304;9.536;2023-08-06T03:41:35;6.03;;;5.25;;
51806;SDS011;37865;51.304;9.536;2023-08-06T03:44:01;8.30;;;5.75;;
51806;SDS011;37865;51.304;9.536;2023-08-06T03:46:28;7.07;;;5.72;;
51806;SDS011;37865;51.304;9.536;2023-08-06T03:48:54;10.98;;;4.93;;
51806;SDS011;37865;51.304;9.536;2023-08-06T03:51:19;5.70;;;4.70;;
51806;SDS011;37865;51.304;9.536;2023-08-06T03:53:44;6.60;;;4.88;;
51806;SDS011;37865;51.304;9.536;2023-08-06T03:56:10;6.13;;;4.88;;
51806;SDS011;37865;51.304;9.536;2023-08-06T03:58:35;6.45;;;4.15;;
51806;SDS011;37865;51.304;9.536;2023-08-06T04:01:01;4.13;;;3.75;;
51806;SDS011;37865;51.304;9.536;2023-08-06T04:03:27;9.18;;;4.18;;
51806;SDS011;37865;51.304;9.536;2023-08-06T04:05:53;3.78;;;3.47;;
51806;SDS011;37865;51.304;9.536;2023-08-06T04:08:19;5.78;;;3.85;;
51806;SDS011;37865;51.304;9.536;2023-08-06T04:10:44;6.45;;;3.85;;
51806;SDS011;37865;51.304;9.536;2023-08-06T04:13:10;11.95;;;4.68;;
51806;SDS011;37865;51.304;9.536;2023-08-06T04:15:35;10.23;;;4.60;;
51806;SDS011;37865;51.304;9.536;2023-08-06T04:18:00;5.43;;;3.38;;
51806;SDS011;37865;51.304;9.536;2023-08-06T04:20:25;8.38;;;4.63;;
51806;SDS011;37865;51.304;9.536;2023-08-06T04:22:51;3.97;;;3.67;;
51806;SDS011;37865;51.304;9.536;2023-08-06T04:25:18;8.02;;;3.85;;
51806;SDS011;37865;51.304;9.536;2023-08-06T04:27:46;6.70;;;3.28;;
51806;SDS011;37865;51.304;9.536;2023-08-06T04:30:12;6.85;;;4.13;;
51806;SDS011;37865;51.304;9.536;2023-08-06T04:32:37;4.18;;;3.58;;
51806;SDS011;37865;51.304;9.536;2023-08-06T04:35:03;4.18;;;3.70;;
51806;SDS011;37865;51.304;9.536;2023-08-06T04:37:28;6.40;;;4.00;;
51806;SDS011;37865;51.304;9.536;2023-08-06T04:39:54;9.82;;;3.65;;
51806;SDS011;37865;51.304;9.536;2023-08-06T04:42:19;8.45;;;4.03;;
51806;SDS011;37865;51.304;9.536;2023-08-06T04:44:44;3.53;;;3.17;;
51806;SDS011;37865;51.304;9.536;2023-08-06T04:47:10;4.05;;;2.97;;
51806;SDS011;37865;51.304;9.536;2023-08-06T04:49:35;3.55;;;3.25;;
51806;SDS011;37865;51.304;9.536;2023-08-06T04:52:00;5.50;;;2.75;;
51806;SDS011;37865;51.304;9.536;2023-08-06T04:54:25;3.38;;;3.08;;
51806;SDS011;37865;51.304;9.536;2023-08-06T04:56:51;4.43;;;3.50;;
51806;SDS011;37865;51.304;9.536;2023-08-06T04:59:16;3.45;;;3.03;;
51806;SDS011;37865;51.304;9.536;2023-08-06T05:01:41;12.80;;;3.90;;
51806;SDS011;37865;51.304;9.536;2023-08-06T05:04:07;3.30;;;2.95;;
51806;SDS011;37865;51.304;9.536;2023-08-06T05:06:32;11.27;;;3.22;;
51806;SDS011;37865;51.304;9.536;2023-08-06T05:08:57;3.10;;;2.80;;
51806;SDS011;37865;51.304;9.536;2023-08-06T05:11:23;4.45;;;3.50;;
51806;SDS011;37865;51.304;9.536;2023-08-06T05:13:49;2.30;;;2.20;;
51806;SDS011;37865;51.304;9.536;2023-08-06T05:16:14;4.22;;;2.70;;
51806;SDS011;37865;51.304;9.536;2023-08-06T05:18:40;3.45;;;2.90;;
51806;SDS011;37865;51.304;9.536;2023-08-06T05:21:06;2.90;;;2.20;;
51806;SDS011;37865;51.304;9.536;2023-08-06T05:23:32;3.42;;;2.53;;
51806;SDS011;37865;51.304;9.536;2023-08-06T05:25:57;3.47;;;2.78;;
51806;SDS011;37865;51.304;9.536;2023-08-06T05:28:22;5.82;;;2.67;;
51806;SDS011;37865;51.304;9.536;2023-08-06T05:30:48;3.22;;;2.90;;
51806;SDS011;37865;51.304;9.536;2023-08-06T05:33:13;4.38;;;2.88;;
51806;SDS011;37865;51.304;9.536;2023-08-06T05:35:40;13.57;;;3.47;;
51806;SDS011;37865;51.304;9.536;2023-08-06T05:38:06;6.53;;;3.08;;
51806;SDS011;37865;51.304;9.536;2023-08-06T05:40:32;10.02;;;3.42;;
51806;SDS011;37865;51.304;9.536;2023-08-06T05:42:58;2.60;;;2.40;;
51806;SDS011;37865;51.304;9.536;2023-08-06T05:45:24;3.42;;;2.67;;
51806;SDS011;37865;51.304;9.536;2023-08-06T05:47:49;5.55;;;2.55;;
51806;SDS011;37865;51.304;9.536;2023-08-06T05:50:15;2.90;;;2.60;;
51806;SDS011;37865;51.304;9.536;2023-08-06T05:52:40;7.30;;;2.53;;
51806;SDS011;37865;51.304;9.536;2023-08-06T05:55:06;3.53;;;2.30;;
51806;SDS011;37865;51.304;9.536;2023-08-06T05:57:31;5.43;;;2.60;;
51806;SDS011;37865;51.304;9.536;2023-08-06T05:59:57;6.35;;;2.95;;
51806;SDS011;37865;51.304;9.536;2023-08-06T06:02:22;3.25;;;2.42;;
51806;SDS011;37865;51.304;9.536;2023-08-06T06:04:47;2.67;;;2.13;;
51806;SDS011;37865;51.304;9.536;2023-08-06T06:07:13;2.50;;;1.85;;
51806;SDS011;37865;51.304;9.536;2023-08-06T06:09:39;2.55;;;2.05;;
51806;SDS011;37865;51.304;9.536;2023-08-06T06:12:04;2.90;;;2.58;;
51806;SDS011;37865;51.304;9.536;2023-08-06T06:14:30;2.38;;;2.17;;
51806;SDS011;37865;51.304;9.536;2023-08-06T06:16:56;3.55;;;2.38;;
51806;SDS011;37865;51.304;9.536;2023-08-06T06:19:21;3.08;;;2.03;;
51806;SDS011;37865;51.304;9.536;2023-08-06T06:21:46;6.65;;;2.53;;
51806;SDS011;37865;51.304;9.536;2023-08-06T06:24:13;2.13;;;1.92;;
51806;SDS011;37865;51.304;9.536;2023-08-06T06:26:38;5.32;;;2.42;;
51806;SDS011;37865;51.304;9.536;2023-08-06T06:29:04;3.20;;;2.58;;
51806;SDS011;37865;51.304;9.536;2023-08-06T06:31:29;4.10;;;2.53;;
51806;SDS011;37865;51.304;9.536;2023-08-06T06:33:55;16.65;;;1.98;;
51806;SDS011;37865;51.304;9.536;2023-08-06T06:36:20;3.50;;;2.08;;
51806;SDS011;37865;51.304;9.536;2023-08-06T06:38:45;6.50;;;2.13;;
51806;SDS011;37865;51.304;9.536;2023-08-06T06:41:11;2.45;;;2.25;;
51806;SDS011;37865;51.304;9.536;2023-08-06T06:43:36;2.55;;;1.92;;
51806;SDS011;37865;51.304;9.536;2023-08-06T06:46:03;3.53;;;2.88;;
51806;SDS011;37865;51.304;9.536;2023-08-06T06:48:29;4.25;;;2.53;;
51806;SDS011;37865;51.304;9.536;2023-08-06T06:50:55;3.97;;;2.30;;
51806;SDS011;37865;51.304;9.536;2023-08-06T06:53:21;3.72;;;2.00;;
51806;SDS011;37865;51.304;9.536;2023-08-06T06:55:52;3.20;;;2.20;;
51806;SDS011;37865;51.304;9.536;2023-08-06T06:58:20;1.92;;;1.83;;
51806;SDS011;37865;51.304;9.536;2023-08-06T07:00:46;3.92;;;2.28;;
51806;SDS011;37865;51.304;9.536;2023-08-06T07:03:13;2.58;;;2.25;;
51806;SDS011;37865;51.304;9.536;2023-08-06T07:05:38;2.03;;;1.67;;
51806;SDS011;37865;51.304;9.536;2023-08-06T07:08:04;2.42;;;1.80;;
51806;SDS011;37865;51.304;9.536;2023-08-06T07:10:29;6.15;;;2.47;;
51806;SDS011;37865;51.304;9.536;2023-08-06T07:12:54;2.00;;;1.65;;
51806;SDS011;37865;51.304;9.536;2023-08-06T07:15:20;4.47;;;2.08;;
51806;SDS011;37865;51.304;9.536;2023-08-06T07:17:45;3.95;;;1.83;;
51806;SDS011;37865;51.304;9.536;2023-08-06T07:20:11;3.38;;;1.67;;
51806;SDS011;37865;51.304;9.536;2023-08-06T07:22:36;2.35;;;1.95;;
51806;SDS011;37865;51.304;9.536;2023-08-06T07:25:01;3.63;;;2.85;;
51806;SDS011;37865;51.304;9.536;2023-08-06T07:27:27;3.20;;;2.08;;
51806;SDS011;37865;51.304;9.536;2023-08-06T07:29:52;5.40;;;2.55;;
51806;SDS011;37865;51.304;9.536;2023-08-06T07:32:18;3.30;;;2.53;;
51806;SDS011;37865;51.304;9.536;2023-08-06T07:34:43;9.98;;;2.33;;
51806;SDS011;37865;51.304;9.536;2023-08-06T07:37:08;3.13;;;1.92;;
51806;SDS011;37865;51.304;9.536;2023-08-06T07:39:34;5.53;;;2.55;;
51806;SDS011;37865;51.304;9.536;2023-08-06T07:41:59;2.33;;;2.13;;
51806;SDS011;37865;51.304;9.536;2023-08-06T07:44:24;2.60;;;2.40;;
51806;SDS011;37865;51.304;9.536;2023-08-06T07:46:50;8.85;;;2.38;;
51806;SDS011;37865;51.304;9.536;2023-08-06T07:49:15;3.15;;;2.17;;
51806;SDS011;37865;51.304;9.536;2023-08-06T07:51:41;1.92;;;1.60;;
51806;SDS011;37865;51.304;9.536;2023-08-06T07:54:06;2.90;;;2.40;;
51806;SDS011;37865;51.304;9.536;2023-08-06T07:56:31;2.67;;;1.98;;
51806;SDS011;37865;51.304;9.536;2023-08-06T07:58:57;4.15;;;1.90;;
51806;SDS011;37865;51.304;9.536;2023-08-06T08:01:22;3.08;;;2.00;;
51806;SDS011;37865;51.304;9.536;2023-08-06T08:03:47;2.17;;;1.52;;
51806;SDS011;37865;51.304;9.536;2023-08-06T08:06:13;3.75;;;2.40;;
51806;SDS011;37865;51.304;9.536;2023-08-06T08:08:38;4.60;;;2.83;;
51806;SDS011;37865;51.304;9.536;2023-08-06T08:11:04;3.38;;;2.15;;
51806;SDS011;37865;51.304;9.536;2023-08-06T08:13:30;2.88;;;2.20;;
51806;SDS011;37865;51.304;9.536;2023-08-06T08:15:58;2.40;;;1.75;;
51806;SDS011;37865;51.304;9.536;2023-08-06T08:18:24;5.07;;;2.45;;
51806;SDS011;37865;51.304;9.536;2023-08-06T08:20:50;2.60;;;1.67;;
51806;SDS011;37865;51.304;9.536;2023-08-06T08:23:16;4.40;;;1.92;;
51806;SDS011;37865;51.304;9.536;2023-08-06T08:25:41;1.90;;;1.60;;
51806;SDS011;37865;51.304;9.536;2023-08-06T08:28:06;4.97;;;1.95;;
51806;SDS011;37865;51.304;9.536;2023-08-06T08:30:32;7.80;;;1.98;;
51806;SDS011;37865;51.304;9.536;2023-08-06T08:32:57;2.75;;;2.13;;
51806;SDS011;37865;51.304;9.536;2023-08-06T08:35:23;6.28;;;2.30;;
51806;SDS011;37865;51.304;9.536;2023-08-06T08:37:48;3.05;;;2.08;;
51806;SDS011;37865;51.304;9.536;2023-08-06T08:40:14;6.68;;;2.33;;
51806;SDS011;37865;51.304;9.536;2023-08-06T08:42:40;3.10;;;2.13;;
51806;SDS011;37865;51.304;9.536;2023-08-06T08:45:06;7.93;;;1.95;;
51806;SDS011;37865;51.304;9.536;2023-08-06T08:47:38;2.40;;;1.80;;
51806;SDS011;37865;51.304;9.536;2023-08-06T08:50:06;2.47;;;2.25;;
51806;SDS011;37865;51.304;9.536;2023-08-06T08:52:33;1.88;;;1.75;;
51806;SDS011;37865;51.304;9.536;2023-08-06T08:55:00;2.92;;;1.92;;
51806;SDS011;37865;51.304;9.536;2023-08-06T08:57:26;8.57;;;2.38;;
51806;SDS011;37865;51.304;9.536;2023-08-06T08:59:51;10.27;;;2.22;;
51806;SDS011;37865;51.304;9.536;2023-08-06T09:02:17;2.95;;;2.63;;
51806;SDS011;37865;51.304;9.536;2023-08-06T09:04:44;2.45;;;2.25;;
51806;SDS011;37865;51.304;9.536;2023-08-06T09:07:10;3.05;;;1.90;;
51806;SDS011;37865;51.304;9.536;2023-08-06T09:09:40;4.18;;;2.92;;
51806;SDS011;37865;51.304;9.536;2023-08-06T09:12:14;4.32;;;1.98;;
51806;SDS011;37865;51.304;9.536;2023-08-06T09:14:40;3.90;;;1.98;;
51806;SDS011;37865;51.304;9.536;2023-08-06T09:17:06;6.28;;;2.63;;
51806;SDS011;37865;51.304;9.536;2023-08-06T09:19:31;4.70;;;2.30;;
51806;SDS011;37865;51.304;9.536;2023-08-06T09:21:57;4.75;;;2.45;;
51806;SDS011;37865;51.304;9.536;2023-08-06T09:24:23;4.75;;;2.22;;
51806;SDS011;37865;51.304;9.536;2023-08-06T09:26:49;2.25;;;2.03;;
51806;SDS011;37865;51.304;9.536;2023-08-06T09:29:14;6.53;;;2.35;;
51806;SDS011;37865;51.304;9.536;2023-08-06T09:31:40;16.52;;;2.67;;
51806;SDS011;37865;51.304;9.536;2023-08-06T09:34:11;3.17;;;2.10;;
51806;SDS011;37865;51.304;9.536;2023-08-06T09:36:46;4.43;;;1.65;;
51806;SDS011;37865;51.304;9.536;2023-08-06T09:39:16;5.35;;;2.05;;
51806;SDS011;37865;51.304;9.536;2023-08-06T09:41:42;13.38;;;2.35;;
51806;SDS011;37865;51.304;9.536;2023-08-06T09:44:18;3.90;;;1.88;;
51806;SDS011;37865;51.304;9.536;2023-08-06T09:46:50;6.38;;;2.38;;
51806;SDS011;37865;51.304;9.536;2023-08-06T09:49:19;2.97;;;1.50;;
51806;SDS011;37865;51.304;9.536;2023-08-06T09:51:46;2.55;;;1.63;;
51806;SDS011;37865;51.304;9.536;2023-08-06T09:54:15;7.07;;;2.03;;
51806;SDS011;37865;51.304;9.536;2023-08-06T09:56:41;3.13;;;1.88;;
51806;SDS011;37865;51.304;9.536;2023-08-06T09:59:08;4.00;;;1.80;;
51806;SDS011;37865;51.304;9.536;2023-08-06T10:01:34;1.95;;;1.20;;
51806;SDS011;37865;51.304;9.536;2023-08-06T10:04:00;12.85;;;1.35;;
51806;SDS011;37865;51.304;9.536;2023-08-06T10:06:28;2.15;;;1.63;;
51806;SDS011;37865;51.304;9.536;2023-08-06T10:08:54;4.45;;;2.05;;
51806;SDS011;37865;51.304;9.536;2023-08-06T10:11:21;2.58;;;1.67;;
51806;SDS011;37865;51.304;9.536;2023-08-06T10:13:49;1.95;;;1.38;;
51806;SDS011;37865;51.304;9.536;2023-08-06T10:16:17;5.07;;;1.58;;
51806;SDS011;37865;51.304;9.536;2023-08-06T10:18:43;3.75;;;1.65;;
51806;SDS011;37865;51.304;9.536;2023-08-06T10:21:09;2.30;;;1.27;;
51806;SDS011;37865;51.304;9.536;2023-08-06T10:23:35;2.20;;;1.63;;
51806;SDS011;37865;51.304;9.536;2023-08-06T10:26:03;3.65;;;1.65;;
51806;SDS011;37865;51.304;9.536;2023-08-06T10:28:35;2.00;;;1.30;;
51806;SDS011;37865;51.304;9.536;2023-08-06T10:31:02;1.85;;;1.42;;
51806;SDS011;37865;51.304;9.536;2023-08-06T10:33:46;3.72;;;1.40;;
51806;SDS011;37865;51.304;9.536;2023-08-06T10:36:14;4.63;;;1.17;;
51806;SDS011;37865;51.304;9.536;2023-08-06T10:38:49;1.52;;;1.40;;
51806;SDS011;37865;51.304;9.536;2023-08-06T10:41:36;2.22;;;1.42;;
51806;SDS011;37865;51.304;9.536;2023-08-06T10:44:07;4.28;;;1.67;;
51806;SDS011;37865;51.304;9.536;2023-08-06T10:46:33;3.72;;;1.95;;
51806;SDS011;37865;51.304;9.536;2023-08-06T10:48:59;6.10;;;2.00;;
51806;SDS011;37865;51.304;9.536;2023-08-06T10:51:25;2.97;;;1.45;;
51806;SDS011;37865;51.304;9.536;2023-08-06T10:53:52;1.13;;;1.02;;
51806;SDS011;37865;51.304;9.536;2023-08-06T10:56:18;3.60;;;1.35;;
51806;SDS011;37865;51.304;9.536;2023-08-06T10:58:49;4.20;;;1.17;;
51806;SDS011;37865;51.304;9.536;2023-08-06T11:01:15;5.28;;;2.75;;
51806;SDS011;37865;51.304;9.536;2023-08-06T11:03:41;3.05;;;1.60;;
51806;SDS011;37865;51.304;9.536;2023-08-06T11:06:08;2.45;;;1.60;;
51806;SDS011;37865;51.304;9.536;2023-08-06T11:08:35;3.00;;;1.48;;
51806;SDS011;37865;51.304;9.536;2023-08-06T11:13:54;2.13;;;1.50;;
51806;SDS011;37865;51.304;9.536;2023-08-06T11:16:20;2.60;;;0.90;;
51806;SDS011;37865;51.304;9.536;2023-08-06T11:18:49;1.65;;;1.10;;
51806;SDS011;37865;51.304;9.536;2023-08-06T11:21:18;1.42;;;0.95;;
51806;SDS011;37865;51.304;9.536;2023-08-06T11:23:44;3.22;;;1.65;;
51806;SDS011;37865;51.304;9.536;2023-08-06T11:26:10;3.00;;;1.25;;
51806;SDS011;37865;51.304;9.536;2023-08-06T11:28:35;13.23;;;1.10;;
51806;SDS011;37865;51.304;9.536;2023-08-06T11:31:00;1.85;;;0.90;;
51806;SDS011;37865;51.304;9.536;2023-08-06T11:33:27;1.33;;;1.05;;
51806;SDS011;37865;51.304;9.536;2023-08-06T11:35:56;2.85;;;1.65;;
51806;SDS011;37865;51.304;9.536;2023-08-06T11:38:26;1.02;;;0.93;;
51806;SDS011;37865;51.304;9.536;2023-08-06T11:40:54;1.00;;;0.93;;
51806;SDS011;37865;51.304;9.536;2023-08-06T11:43:20;0.65;;;0.60;;
51806;SDS011;37865;51.304;9.536;2023-08-06T11:45:47;3.25;;;1.30;;
51806;SDS011;37865;51.304;9.536;2023-08-06T11:48:13;0.80;;;0.60;;
51806;SDS011;37865;51.304;9.536;2023-08-06T11:50:38;1.88;;;1.00;;
51806;SDS011;37865;51.304;9.536;2023-08-06T11:53:04;1.98;;;1.05;;
51806;SDS011;37865;51.304;9.536;2023-08-06T11:55:30;3.03;;;1.20;;
51806;SDS011;37865;51.304;9.536;2023-08-06T11:57:55;1.73;;;1.48;;
51806;SDS011;37865;51.304;9.536;2023-08-06T12:00:25;1.98;;;1.08;;
51806;SDS011;37865;51.304;9.536;2023-08-06T12:02:51;2.38;;;0.80;;
51806;SDS011;37865;51.304;9.536;2023-08-06T12:05:17;2.72;;;0.88;;
51806;SDS011;37865;51.304;9.536;2023-08-06T12:07:48;2.15;;;0.90;;
51806;SDS011;37865;51.304;9.536;2023-08-06T12:10:15;3.40;;;1.13;;
51806;SDS011;37865;51.304;9.536;2023-08-06T12:12:41;2.00;;;1.02;;
51806;SDS011;37865;51.304;9.536;2023-08-06T12:15:07;4.05;;;0.90;;
51806;SDS011;37865;51.304;9.536;2023-08-06T12:17:34;6.03;;;1.08;;
51806;SDS011;37865;51.304;9.536;2023-08-06T12:19:59;7.43;;;1.45;;
51806;SDS011;37865;51.304;9.536;2023-08-06T12:22:25;3.53;;;0.88;;
51806;SDS011;37865;51.304;9.536;2023-08-06T12:24:50;7.60;;;1.63;;
51806;SDS011;37865;51.304;9.536;2023-08-06T12:27:15;1.50;;;1.20;;
51806;SDS011;37865;51.304;9.536;2023-08-06T12:29:44;1.25;;;1.08;;
51806;SDS011;37865;51.304;9.536;2023-08-06T12:32:12;1.45;;;1.35;;
51806;SDS011;37865;51.304;9.536;2023-08-06T12:34:41;5.60;;;1.35;;
51806;SDS011;37865;51.304;9.536;2023-08-06T12:37:07;2.58;;;1.35;;
51806;SDS011;37865;51.304;9.536;2023-08-06T12:39:33;1.40;;;1.20;;
51806;SDS011;37865;51.304;9.536;2023-08-06T12:41:59;2.35;;;0.95;;
51806;SDS011;37865;51.304;9.536;2023-08-06T12:44:25;3.95;;;1.70;;
51806;SDS011;37865;51.304;9.536;2023-08-06T12:46:51;2.50;;;1.17;;
51806;SDS011;37865;51.304;9.536;2023-08-06T12:49:19;2.42;;;1.00;;
51806;SDS011;37865;51.304;9.536;2023-08-06T12:51:48;3.03;;;1.92;;
51806;SDS011;37865;51.304;9.536;2023-08-06T12:54:15;2.42;;;0.80;;
51806;SDS011;37865;51.304;9.536;2023-08-06T12:56:42;2.60;;;0.98;;
51806;SDS011;37865;51.304;9.536;2023-08-06T12:59:08;3.25;;;1.17;;
51806;SDS011;37865;51.304;9.536;2023-08-06T13:01:33;2.03;;;1.27;;
51806;SDS011;37865;51.304;9.536;2023-08-06T13:03:59;1.38;;;1.00;;
51806;SDS011;37865;51.304;9.536;2023-08-06T13:06:25;1.08;;;0.98;;
51806;SDS011;37865;51.304;9.536;2023-08-06T13:08:50;2.35;;;1.10;;
51806;SDS011;37865;51.304;9.536;2023-08-06T13:11:15;2.17;;;0.98;;
51806;SDS011;37865;51.304;9.536;2023-08-06T13:13:41;1.65;;;1.25;;
51806;SDS011;37865;51.304;9.536;2023-08-06T13:16:06;1.77;;;1.20;;
51806;SDS011;37865;51.304;9.536;2023-08-06T13:18:31;1.65;;;1.05;;
51806;SDS011;37865;51.304;9.536;2023-08-06T13:20:57;1.33;;;0.57;;
51806;SDS011;37865;51.304;9.536;2023-08-06T13:23:23;2.90;;;1.65;;
51806;SDS011;37865;51.304;9.536;2023-08-06T13:25:48;1.75;;;0.98;;
51806;SDS011;37865;51.304;9.536;2023-08-06T13:28:13;1.75;;;1.35;;
51806;SDS011;37865;51.304;9.536;2023-08-06T13:30:39;4.68;;;2.22;;
51806;SDS011;37865;51.304;9.536;2023-08-06T13:33:10;5.35;;;2.00;;
51806;SDS011;37865;51.304;9.536;2023-08-06T13:35:36;4.38;;;2.72;;
51806;SDS011;37865;51.304;9.536;2023-08-06T13:38:01;3.03;;;2.78;;
51806;SDS011;37865;51.304;9.536;2023-08-06T13:40:28;3.50;;;1.80;;
51806;SDS011;37865;51.304;9.536;2023-08-06T13:42:53;3.20;;;1.70;;
51806;SDS011;37865;51.304;9.536;2023-08-06T13:45:18;3.13;;;1.48;;
51806;SDS011;37865;51.304;9.536;2023-08-06T13:47:44;2.30;;;1.38;;
51806;SDS011;37865;51.304;9.536;2023-08-06T13:50:09;1.80;;;0.90;;
51806;SDS011;37865;51.304;9.536;2023-08-06T13:52:34;3.35;;;1.42;;
51806;SDS011;37865;51.304;9.536;2023-08-06T13:55:00;3.33;;;1.88;;
51806;SDS011;37865;51.304;9.536;2023-08-06T13:57:27;1.42;;;1.33;;
51806;SDS011;37865;51.304;9.536;2023-08-06T13:59:52;5.15;;;1.60;;
51806;SDS011;37865;51.304;9.536;2023-08-06T14:02:17;3.45;;;1.77;;
51806;SDS011;37865;51.304;9.536;2023-08-06T14:04:42;5.88;;;1.70;;
51806;SDS011;37865;51.304;9.536;2023-08-06T14:07:08;4.22;;;2.58;;
51806;SDS011;37865;51.304;9.536;2023-08-06T14:09:33;2.80;;;1.80;;
51806;SDS011;37865;51.304;9.536;2023-08-06T14:11:59;1.88;;;1.25;;
51806;SDS011;37865;51.304;9.536;2023-08-06T14:14:25;1.33;;;1.23;;
51806;SDS011;37865;51.304;9.536;2023-08-06T14:16:52;2.45;;;1.17;;
51806;SDS011;37865;51.304;9.536;2023-08-06T14:19:18;2.35;;;1.40;;
51806;SDS011;37865;51.304;9.536;2023-08-06T14:21:43;2.25;;;1.40;;
51806;SDS011;37865;51.304;9.536;2023-08-06T14:24:09;4.93;;;1.85;;
51806;SDS011;37865;51.304;9.536;2023-08-06T14:26:34;6.10;;;2.75;;
51806;SDS011;37865;51.304;9.536;2023-08-06T14:29:00;1.33;;;1.23;;
51806;SDS011;37865;51.304;9.536;2023-08-06T14:31:25;3.40;;;1.30;;
51806;SDS011;37865;51.304;9.536;2023-08-06T14:33:51;1.85;;;0.93;;
51806;SDS011;37865;51.304;9.536;2023-08-06T14:36:16;2.42;;;1.48;;
51806;SDS011;37865;51.304;9.536;2023-08-06T14:38:41;2.33;;;1.38;;
51806;SDS011;37865;51.304;9.536;2023-08-06T14:41:07;1.20;;;1.10;;
51806;SDS011;37865;51.304;9.536;2023-08-06T14:43:32;4.70;;;1.23;;
51806;SDS011;37865;51.304;9.536;2023-08-06T14:45:57;2.65;;;1.90;;
51806;SDS011;37865;51.304;9.536;2023-08-06T14:48:24;3.90;;;2.50;;
51806;SDS011;37865;51.304;9.536;2023-08-06T14:50:49;2.47;;;1.70;;
51806;SDS011;37865;51.304;9.536;2023-08-06T14:53:14;1.50;;;1.40;;